Terminal Aerodrome Forecast
Issued by NWS

Home | Current Version | Previous Version | Text Only | Print | Product List | Glossary On
Versions: 1 2 3 4 5 6 7 8 9 10 11 12
000
FTUS44 KLZK 050534
TAFADF
TAF
KADF 050534Z 0506/0606 00000KT P6SM VCSH SCT150 BKN250
     FM051500 21005KT P6SM VCSH SCT050 BKN100 BKN250
     FM051900 22008KT P6SM VCTS SCT050CB BKN100 BKN250=

USA.gov is the U.S. government's official web portal to all federal, state and local government web resources and services.